createdAt,value
2022-11-02T00:03:52.297Z,130
2022-11-02T00:23:52.309Z,129
2022-11-02T00:43:52.338Z,125
2022-11-02T01:03:52.373Z,123
2022-11-02T01:23:52.378Z,126
2022-11-02T01:43:51.908Z,129
2022-11-02T02:03:52.399Z,129
2022-11-02T02:23:51.948Z,126
2022-11-02T02:43:52.509Z,128
2022-11-02T03:03:52.475Z,127
2022-11-02T03:23:51.990Z,126
2022-11-02T03:43:52.586Z,123
2022-11-02T04:03:52.531Z,126
2022-11-02T04:43:52.058Z,128
2022-11-02T05:03:52.590Z,127
2022-11-02T05:23:52.707Z,130
2022-11-02T05:43:52.637Z,128
2022-11-02T06:03:53.844Z,124
2022-11-02T06:23:52.675Z,126
2022-11-02T06:43:52.810Z,124
2022-11-02T07:03:52.813Z,125
2022-11-02T07:23:52.719Z,120
2022-11-02T07:43:52.748Z,126
2022-11-02T08:03:52.763Z,123
2022-11-02T08:23:57.494Z,124
2022-11-02T08:43:52.822Z,126
2022-11-02T09:03:52.858Z,126
2022-11-02T09:23:52.848Z,127
2022-11-02T09:43:52.859Z,124
2022-11-02T10:23:52.891Z,123
2022-11-02T10:43:52.913Z,123
2022-11-02T11:03:52.938Z,124
2022-11-02T11:23:52.955Z,126
2022-11-02T11:43:52.997Z,127
2022-11-02T12:03:53.343Z,128
2022-11-02T12:23:53.014Z,123
2022-11-02T12:43:53.029Z,119
2022-11-02T13:03:53.134Z,120
2022-11-02T13:23:53.062Z,117
2022-11-02T13:43:52.587Z,119
2022-11-02T14:03:56.129Z,119
2022-11-02T14:23:53.197Z,121
2022-11-02T14:43:53.152Z,122
2022-11-02T15:03:53.753Z,124
2022-11-02T15:23:53.176Z,122
2022-11-02T16:03:58.175Z,121
2022-11-02T16:23:53.217Z,118
2022-11-02T16:43:53.235Z,119
2022-11-02T17:03:53.273Z,120
2022-11-02T17:23:53.292Z,120
2022-11-02T17:43:53.306Z,122
2022-11-02T18:03:53.323Z,125
2022-11-02T18:23:53.365Z,130
2022-11-02T18:43:53.392Z,130
2022-11-02T19:03:53.394Z,129
2022-11-02T19:23:53.492Z,130
2022-11-02T19:43:53.458Z,127
2022-11-02T20:03:52.967Z,129
2022-11-02T20:23:53.285Z,126
2022-11-02T20:43:53.505Z,129
2022-11-02T21:03:53.514Z,126
2022-11-02T21:23:53.541Z,129
2022-11-02T21:43:53.571Z,127
2022-11-02T22:03:53.600Z,125
2022-11-02T22:23:53.639Z,128
2022-11-02T22:43:53.636Z,128
2022-11-02T23:03:53.655Z,130
2022-11-02T23:23:53.673Z,132
2022-11-02T23:43:53.695Z,127
